Terminal Aerodrome Forecast
Issued by NWS Corpus Christi, TX

Home | Current Version | Previous Version | Text Only | Print | Product List | Glossary On
Versions: 1 2 3 4 5 6 7 8 9 10 11 12 13 14
679
FTUS44 KCRP 101140
TAFVCT
TAF
KVCT 101140Z 1012/1112 04006KT P6SM OVC070
     FM101900 08006KT P6SM OVC025
     FM110000 12006KT P6SM OVC015
     FM110800 14004KT 4SM BR OVC007=

USA.gov is the U.S. government's official web portal to all federal, state and local government web resources and services.